Time;durP1;ratioP1;P1;durP2;ratioP2;P2;SDS_P1;SDS_P2;PMS_P1;PMS_P2;Temp;Humidity;BMP_temperature;BMP_pressure;BME280_temperature;BME280_humidity;BME280_pressure;Samples;Min_cycle;Max_cycle;Signal;HPM_P1;HPM_P2
2021/10/03 00:02:21;;;;;;;14.47;5.70;;;15.40;97.30;;;;;;5075053;28;20958;-87
2021/10/03 00:04:47;;;;;;;8.10;5.33;;;15.40;97.30;;;;;;5075180;28;20436;-85
2021/10/03 00:07:14;;;;;;;9.87;5.60;;;15.40;97.30;;;;;;5076328;28;20409;-86
2021/10/03 00:09:39;;;;;;;11.60;5.20;;;15.40;97.30;;;;;;5076113;28;20481;-85
2021/10/03 00:12:06;;;;;;;10.80;4.80;;;15.40;97.30;;;;;;5075345;28;20421;-85
2021/10/03 00:14:32;;;;;;;10.77;5.80;;;15.40;97.30;;;;;;5075189;28;20233;-86
2021/10/03 00:16:57;;;;;;;8.27;4.77;;;15.40;97.30;;;;;;5074861;28;20935;-86
2021/10/03 00:19:23;;;;;;;7.47;5.10;;;15.40;97.30;;;;;;5075067;28;20451;-85
2021/10/03 00:21:50;;;;;;;9.77;4.87;;;15.40;97.30;;;;;;5087951;28;20227;-85
2021/10/03 00:24:16;;;;;;;10.50;5.50;;;15.40;97.30;;;;;;5096281;28;20432;-85
2021/10/03 00:26:42;;;;;;;7.60;4.80;;;15.40;97.30;;;;;;5094723;28;20936;-85
2021/10/03 00:29:08;;;;;;;8.17;5.20;;;15.40;97.30;;;;;;5094378;28;20202;-85
2021/10/03 00:31:34;;;;;;;8.23;5.33;;;15.40;97.30;;;;;;5094820;28;20481;-85
2021/10/03 00:33:59;;;;;;;9.93;5.50;;;15.40;97.30;;;;;;5076672;28;20445;-85
2021/10/03 00:36:25;;;;;;;8.67;4.80;;;15.40;97.30;;;;;;5074499;28;20513;-85
2021/10/03 00:38:51;;;;;;;7.63;4.37;;;15.40;97.30;;;;;;5074900;28;20167;-85
2021/10/03 00:41:17;;;;;;;10.37;4.77;;;15.40;97.30;;;;;;5074406;28;20171;-85
2021/10/03 00:43:42;;;;;;;13.33;4.33;;;15.40;97.30;;;;;;5074193;28;20902;-85
2021/10/03 00:46:08;;;;;;;8.93;4.60;;;15.40;97.30;;;;;;5074757;28;20289;-85
2021/10/03 00:48:34;;;;;;;6.63;4.30;;;15.40;97.30;;;;;;5080701;28;20177;-85
2021/10/03 00:50:59;;;;;;;10.27;5.60;;;15.40;97.30;;;;;;5095725;28;20220;-86
2021/10/03 00:53:27;;;;;;;8.10;4.80;;;15.40;97.30;;;;;;5094479;28;20630;-85
2021/10/03 00:55:53;;;;;;;9.10;5.20;;;15.40;97.30;;;;;;5093991;28;20220;-85
2021/10/03 00:58:19;;;;;;;7.63;4.70;;;15.40;97.30;;;;;;5095362;28;20404;-85
2021/10/03 01:00:45;;;;;;;8.77;4.77;;;15.40;97.30;;;;;;5090866;28;20496;-85
2021/10/03 01:03:11;;;;;;;11.77;5.90;;;15.50;97.30;;;;;;5074672;28;20516;-86
2021/10/03 01:05:38;;;;;;;12.23;4.90;;;15.50;97.30;;;;;;5074930;28;20175;-85
2021/10/03 01:08:04;;;;;;;10.97;4.77;;;15.50;97.30;;;;;;5074264;28;20414;-86
2021/10/03 01:10:31;;;;;;;9.60;4.53;;;15.50;97.30;;;;;;5074587;28;21001;-85
2021/10/03 01:13:05;;;;;;;10.27;5.70;;;15.50;97.30;;;;;;5074232;28;20907;-85
2021/10/03 01:15:33;;;;;;;10.50;5.40;;;15.50;97.30;;;;;;5075245;28;20385;-86
2021/10/03 01:17:58;;;;;;;10.27;6.10;;;15.50;97.30;;;;;;5074189;28;20409;-85
2021/10/03 01:20:25;;;;;;;9.20;5.27;;;15.50;97.30;;;;;;5074387;28;20417;-85
2021/10/03 01:22:51;;;;;;;12.03;5.43;;;15.50;97.30;;;;;;5074307;28;20814;-85
2021/10/03 01:25:18;;;;;;;10.57;5.60;;;15.50;97.30;;;;;;5075719;28;20413;-85
2021/10/03 01:27:44;;;;;;;9.53;5.50;;;15.60;97.30;;;;;;5075002;28;20851;-84
2021/10/03 01:30:14;;;;;;;10.67;6.37;;;15.60;97.30;;;;;;5073510;28;20489;-84
2021/10/03 01:32:40;;;;;;;9.73;5.30;;;15.60;97.30;;;;;;5073150;28;20410;-84
2021/10/03 01:35:08;;;;;;;10.53;6.00;;;15.60;97.30;;;;;;5073158;28;20863;-84
2021/10/03 01:37:34;;;;;;;10.17;5.70;;;15.60;97.30;;;;;;5073034;28;20406;-84
2021/10/03 01:40:04;;;;;;;9.00;5.40;;;15.70;97.30;;;;;;5072837;28;20417;-84
2021/10/03 01:42:30;;;;;;;10.40;5.83;;;15.70;97.30;;;;;;5072969;28;20637;-84
2021/10/03 01:44:55;;;;;;;11.37;5.73;;;15.70;97.30;;;;;;5072740;28;20440;-84
2021/10/03 01:47:21;;;;;;;11.27;6.77;;;15.70;97.30;;;;;;5073084;28;20182;-85
2021/10/03 01:49:50;;;;;;;11.43;6.50;;;15.70;97.30;;;;;;5073092;28;20195;-84
2021/10/03 01:52:16;;;;;;;11.90;6.50;;;15.70;97.30;;;;;;5073298;28;20171;-85
2021/10/03 01:54:44;;;;;;;12.10;6.53;;;15.60;97.30;;;;;;5072932;28;20428;-85
2021/10/03 01:57:10;;;;;;;11.60;6.47;;;15.60;97.30;;;;;;5074319;28;20418;-85
2021/10/03 01:59:35;;;;;;;11.63;6.83;;;15.60;97.30;;;;;;5073216;28;20428;-85
2021/10/03 02:02:01;;;;;;;12.03;6.17;;;15.60;97.30;;;;;;5073070;28;20185;-85
2021/10/03 02:04:27;;;;;;;12.83;6.63;;;15.70;97.30;;;;;;5072407;28;20195;-84
2021/10/03 02:06:58;;;;;;;11.17;6.83;;;15.70;97.30;;;;;;5072851;28;20715;-85
2021/10/03 02:09:26;;;;;;;13.17;7.37;;;15.70;97.30;;;;;;5072527;28;20465;-85
2021/10/03 02:11:58;;;;;;;10.30;6.20;;;15.70;97.30;;;;;;5072713;28;20500;-84
2021/10/03 02:14:27;;;;;;;12.27;6.40;;;15.70;97.30;;;;;;5072750;28;20429;-84
2021/10/03 02:16:55;;;;;;;11.70;6.40;;;15.70;97.30;;;;;;5074885;28;20906;-86
2021/10/03 02:19:23;;;;;;;12.50;5.70;;;15.60;97.30;;;;;;5073159;28;20466;-85
2021/10/03 02:21:49;;;;;;;13.93;6.93;;;15.70;97.30;;;;;;5072991;28;20409;-85
2021/10/03 02:24:15;;;;;;;11.23;6.60;;;15.60;97.30;;;;;;5073094;28;20436;-84
2021/10/03 02:26:41;;;;;;;11.40;6.13;;;15.60;97.30;;;;;;5072884;28;20218;-85
2021/10/03 02:29:08;;;;;;;10.60;6.30;;;15.60;97.30;;;;;;5072901;28;20405;-84
2021/10/03 02:31:34;;;;;;;11.93;7.40;;;15.60;97.30;;;;;;5072995;28;20459;-85
2021/10/03 02:33:59;;;;;;;12.43;6.63;;;15.60;97.30;;;;;;5074095;28;20457;-85
2021/10/03 02:36:25;;;;;;;10.50;6.50;;;15.60;97.30;;;;;;5072682;28;20830;-84
2021/10/03 02:38:51;;;;;;;11.47;5.53;;;15.50;97.30;;;;;;5072289;28;20175;-84
2021/10/03 02:41:18;;;;;;;10.20;5.90;;;15.50;97.30;;;;;;5072294;28;20191;-85
2021/10/03 02:43:48;;;;;;;11.97;6.50;;;15.50;97.30;;;;;;5073069;28;20436;-84
2021/10/03 02:46:15;;;;;;;14.60;7.10;;;15.50;97.30;;;;;;5073154;28;20410;-85
2021/10/03 02:48:45;;;;;;;14.90;7.60;;;15.40;97.30;;;;;;5076939;28;20470;-85
2021/10/03 02:51:10;;;;;;;12.53;6.20;;;15.40;97.30;;;;;;5076524;28;20455;-84
2021/10/03 02:53:36;;;;;;;13.10;6.70;;;15.40;97.30;;;;;;5077516;28;20433;-84
2021/10/03 02:56:01;;;;;;;9.67;6.40;;;15.40;97.30;;;;;;5076180;28;20182;-84
2021/10/03 02:58:29;;;;;;;12.97;6.47;;;15.40;97.30;;;;;;5076189;28;20175;-84
2021/10/03 03:00:55;;;;;;;14.87;7.83;;;15.40;97.30;;;;;;5076179;28;20187;-84
2021/10/03 03:03:21;;;;;;;13.47;6.50;;;15.40;97.30;;;;;;5090149;28;20444;-85
2021/10/03 03:05:48;;;;;;;14.13;7.17;;;15.40;97.30;;;;;;5096410;28;20426;-84
2021/10/03 03:08:14;;;;;;;13.10;6.83;;;15.40;97.30;;;;;;5096330;28;20178;-84
2021/10/03 03:10:39;;;;;;;15.17;8.10;;;15.40;97.30;;;;;;5096403;28;20458;-85
2021/10/03 03:13:05;;;;;;;12.90;7.07;;;15.40;97.30;;;;;;5096367;28;20190;-84
2021/10/03 03:15:31;;;;;;;12.20;7.10;;;15.40;97.30;;;;;;5096723;28;20238;-85
2021/10/03 03:17:57;;;;;;;12.80;7.70;;;15.40;97.30;;;;;;5096388;28;20659;-85
2021/10/03 03:20:22;;;;;;;13.40;7.47;;;15.40;97.30;;;;;;5096071;28;20217;-84
2021/10/03 03:22:48;;;;;;;13.13;7.27;;;15.40;97.30;;;;;;5096274;28;20412;-85
2021/10/03 03:25:15;;;;;;;15.97;8.50;;;15.40;97.30;;;;;;5096197;28;20182;-84
2021/10/03 03:27:42;;;;;;;13.43;7.20;;;15.40;97.30;;;;;;5096599;28;20186;-85
2021/10/03 03:30:10;;;;;;;14.13;8.30;;;15.40;97.30;;;;;;5089027;28;20447;-83
2021/10/03 03:32:36;;;;;;;14.67;8.23;;;15.40;97.30;;;;;;5095982;28;20419;-84
2021/10/03 03:35:02;;;;;;;12.90;7.30;;;15.40;97.30;;;;;;5097757;28;20432;-84
2021/10/03 03:37:27;;;;;;;15.90;8.37;;;15.40;97.30;;;;;;5096152;28;20424;-85
2021/10/03 03:39:53;;;;;;;15.83;8.70;;;15.40;97.30;;;;;;5096098;28;20929;-84
2021/10/03 03:42:19;;;;;;;17.50;9.10;;;15.40;97.30;;;;;;5098171;28;20182;-85
2021/10/03 03:44:44;;;;;;;16.33;8.97;;;15.40;97.30;;;;;;5098676;28;20203;-84
2021/10/03 03:47:11;;;;;;;16.20;7.40;;;15.40;97.30;;;;;;5098410;28;20178;-86
2021/10/03 03:49:38;;;;;;;13.33;7.97;;;15.40;97.30;;;;;;5083799;28;20210;-85
2021/10/03 03:52:04;;;;;;;16.30;8.47;;;15.40;97.30;;;;;;5076074;28;20539;-86
2021/10/03 03:54:30;;;;;;;15.27;8.73;;;15.40;97.30;;;;;;5078059;28;20478;-85
2021/10/03 03:56:55;;;;;;;15.83;9.00;;;15.40;97.30;;;;;;5076643;28;20466;-85
2021/10/03 03:59:25;;;;;;;17.40;8.90;;;15.40;97.30;;;;;;5077477;28;20179;-86
2021/10/03 04:01:51;;;;;;;18.00;9.07;;;15.30;97.30;;;;;;5075082;28;20179;-85
2021/10/03 04:04:17;;;;;;;14.20;7.70;;;15.30;97.30;;;;;;5075961;28;20444;-85
2021/10/03 04:06:42;;;;;;;16.67;8.70;;;15.30;97.30;;;;;;5075343;28;20495;-85
2021/10/03 04:09:08;;;;;;;15.23;7.73;;;15.30;97.30;;;;;;5077390;28;20754;-85
2021/10/03 04:11:34;;;;;;;17.13;7.80;;;15.30;97.30;;;;;;5077924;28;20202;-85
2021/10/03 04:14:00;;;;;;;14.77;8.73;;;15.30;97.30;;;;;;5077505;28;20194;-85
2021/10/03 04:16:25;;;;;;;14.47;7.97;;;15.20;97.30;;;;;;5058227;28;20213;-85
2021/10/03 04:18:51;;;;;;;16.20;7.57;;;15.20;97.30;;;;;;5074821;28;20414;-85
2021/10/03 04:21:16;;;;;;;16.20;8.37;;;15.20;97.30;;;;;;5074736;28;20175;-85
2021/10/03 04:23:42;;;;;;;16.97;8.47;;;15.20;97.30;;;;;;5074877;28;20191;-85
2021/10/03 04:26:08;;;;;;;17.00;8.93;;;15.20;97.30;;;;;;5074689;28;20175;-84
2021/10/03 04:28:34;;;;;;;12.40;7.43;;;15.20;97.30;;;;;;5074312;28;20172;-84
2021/10/03 04:30:59;;;;;;;16.73;7.97;;;15.10;97.30;;;;;;5076807;28;20445;-86
2021/10/03 04:33:25;;;;;;;15.33;8.00;;;15.10;97.30;;;;;;5075232;28;20195;-85
2021/10/03 04:35:51;;;;;;;15.90;8.67;;;15.10;97.30;;;;;;5075346;28;20182;-84
2021/10/03 04:38:16;;;;;;;15.50;8.90;;;15.10;97.30;;;;;;5075468;28;20243;-84
2021/10/03 04:40:42;;;;;;;14.80;8.37;;;15.10;97.30;;;;;;5076436;28;20598;-85
2021/10/03 04:43:08;;;;;;;15.63;8.63;;;15.00;97.30;;;;;;5074396;28;20286;-84
2021/10/03 04:45:33;;;;;;;19.60;9.30;;;15.00;97.30;;;;;;5074536;28;20687;-85
2021/10/03 04:48:02;;;;;;;17.30;8.27;;;15.00;97.30;;;;;;5074851;28;20268;-85
2021/10/03 04:50:30;;;;;;;15.30;8.43;;;15.00;97.30;;;;;;5095534;28;20243;-85
2021/10/03 04:52:59;;;;;;;18.50;8.33;;;15.10;97.30;;;;;;5096773;28;20435;-85
2021/10/03 04:55:24;;;;;;;14.20;8.30;;;15.10;97.30;;;;;;5094462;28;20427;-85
2021/10/03 04:57:51;;;;;;;19.07;8.50;;;15.10;97.30;;;;;;5095159;28;20786;-85
2021/10/03 05:00:16;;;;;;;16.50;8.87;;;15.10;97.30;;;;;;5091386;28;20667;-85
2021/10/03 05:02:42;;;;;;;14.50;7.90;;;15.00;97.30;;;;;;5074418;28;20418;-85
2021/10/03 05:05:08;;;;;;;15.13;8.30;;;15.10;97.30;;;;;;5073788;28;20665;-85
2021/10/03 05:07:34;;;;;;;14.47;8.40;;;15.10;97.30;;;;;;5074192;28;20179;-85
2021/10/03 05:10:00;;;;;;;17.00;8.60;;;15.10;97.30;;;;;;5072665;28;20542;-84
2021/10/03 05:12:26;;;;;;;15.43;8.13;;;15.10;97.30;;;;;;5074377;28;20197;-85
2021/10/03 05:14:52;;;;;;;15.07;8.23;;;15.10;97.30;;;;;;5074258;28;20438;-84
2021/10/03 05:17:18;;;;;;;14.80;8.40;;;15.10;97.30;;;;;;5074842;28;20455;-83
2021/10/03 05:19:44;;;;;;;17.40;8.33;;;15.10;97.30;;;;;;5093714;28;20174;-84
2021/10/03 05:22:10;;;;;;;14.83;8.30;;;15.10;97.30;;;;;;5096924;28;20174;-84
2021/10/03 05:24:38;;;;;;;13.30;8.50;;;15.10;97.30;;;;;;5096665;28;20432;-84
2021/10/03 05:27:04;;;;;;;13.07;7.80;;;15.10;97.30;;;;;;5096732;28;20420;-85
2021/10/03 05:29:30;;;;;;;15.00;7.63;;;15.10;97.30;;;;;;5085688;28;20431;-84
2021/10/03 05:31:59;;;;;;;15.10;7.57;;;15.10;97.30;;;;;;5083718;28;20424;-85
2021/10/03 05:34:26;;;;;;;13.00;7.70;;;15.10;97.30;;;;;;5084119;28;20485;-83
2021/10/03 05:36:52;;;;;;;15.40;7.80;;;15.10;97.30;;;;;;5097473;28;20417;-84
2021/10/03 05:39:18;;;;;;;17.00;8.20;;;15.10;97.30;;;;;;5095540;28;20839;-85
2021/10/03 05:41:44;;;;;;;15.47;8.63;;;15.10;97.30;;;;;;5077443;28;20205;-84
2021/10/03 05:44:10;;;;;;;15.50;8.10;;;15.20;97.30;;;;;;5074764;28;20524;-86
2021/10/03 05:46:36;;;;;;;13.17;7.00;;;15.20;97.30;;;;;;5074761;28;20453;-85
2021/10/03 05:49:02;;;;;;;15.90;9.17;;;15.20;97.30;;;;;;5074586;28;20417;-86
2021/10/03 05:51:28;;;;;;;15.73;8.30;;;15.20;97.30;;;;;;5074899;28;20975;-86
2021/10/03 05:53:54;;;;;;;12.37;7.43;;;15.20;97.30;;;;;;5091364;28;20281;-86
2021/10/03 05:56:21;;;;;;;14.60;8.53;;;15.20;97.30;;;;;;5079518;28;20202;-87
2021/10/03 05:58:47;;;;;;;12.63;7.60;;;15.20;97.30;;;;;;5074904;28;20512;-85
2021/10/03 06:01:18;;;;;;;15.00;7.40;;;15.20;97.30;;;;;;5076105;28;20453;-85
2021/10/03 06:03:50;;;;;;;14.57;7.90;;;15.20;97.30;;;;;;5075929;28;20259;-86
2021/10/03 06:06:17;;;;;;;13.70;7.60;;;15.20;97.30;;;;;;5079109;28;20432;-85
2021/10/03 06:08:53;;;;;;;14.87;8.37;;;15.20;97.30;;;;;;5082334;28;20976;-85
2021/10/03 06:11:44;;;;;;;11.90;7.10;;;15.30;97.30;;;;;;5100007;28;20463;-86
2021/10/03 06:14:30;;;;;;;15.43;8.17;;;15.30;97.30;;;;;;5085012;28;20440;-85
2021/10/03 06:16:57;;;;;;;16.80;8.20;;;15.30;97.30;;;;;;5094031;28;20483;-85
2021/10/03 06:19:23;;;;;;;16.20;8.63;;;15.40;97.30;;;;;;5097357;28;20868;-83
2021/10/03 06:21:49;;;;;;;15.77;7.20;;;15.40;97.30;;;;;;5096425;28;20993;-81
2021/10/03 06:24:18;;;;;;;14.33;7.47;;;15.50;97.30;;;;;;5097498;28;20437;-80
2021/10/03 06:26:47;;;;;;;15.33;8.13;;;15.50;97.30;;;;;;5102162;28;20662;-82
2021/10/03 06:29:14;;;;;;;14.77;8.60;;;15.50;97.30;;;;;;5100932;28;20425;-80
2021/10/03 06:31:40;;;;;;;14.70;7.90;;;15.60;97.30;;;;;;5086273;28;20457;-84
2021/10/03 06:34:06;;;;;;;11.97;7.90;;;15.60;97.30;;;;;;5098970;28;20432;-83
2021/10/03 06:36:33;;;;;;;15.00;7.73;;;15.60;97.30;;;;;;5100619;28;20894;-82
2021/10/03 06:38:59;;;;;;;14.77;7.83;;;15.60;97.30;;;;;;5096147;28;20433;-83
2021/10/03 06:41:26;;;;;;;16.47;7.97;;;15.60;97.30;;;;;;5096196;28;20425;-82
2021/10/03 06:43:58;;;;;;;15.47;8.23;;;15.60;97.30;;;;;;5090814;28;20441;-85
2021/10/03 06:46:23;;;;;;;16.00;8.03;;;15.60;97.30;;;;;;5099423;28;20419;-84
2021/10/03 06:48:49;;;;;;;15.03;8.10;;;15.60;97.30;;;;;;5096593;28;20417;-84
2021/10/03 06:51:16;;;;;;;17.47;7.20;;;15.70;97.30;;;;;;5088225;28;20194;-85
2021/10/03 06:53:42;;;;;;;16.40;8.40;;;15.70;97.30;;;;;;5088334;28;20252;-85
2021/10/03 06:56:11;;;;;;;19.37;8.40;;;15.70;97.30;;;;;;5085592;28;20405;-84
2021/10/03 06:58:36;;;;;;;13.60;8.30;;;15.70;97.30;;;;;;5083261;28;20428;-85
2021/10/03 07:01:04;;;;;;;16.37;9.17;;;15.70;97.30;;;;;;5086732;28;20416;-85
2021/10/03 07:03:30;;;;;;;13.90;7.47;;;15.80;97.30;;;;;;5083926;28;20271;-85
2021/10/03 07:05:56;;;;;;;14.60;8.57;;;15.80;97.30;;;;;;5086256;28;20421;-85
2021/10/03 07:08:23;;;;;;;13.00;7.23;;;15.90;97.30;;;;;;5085876;28;20412;-84
2021/10/03 07:10:49;;;;;;;13.67;7.47;;;15.90;97.30;;;;;;5093435;28;20460;-84
2021/10/03 07:13:16;;;;;;;19.83;8.33;;;16.00;97.30;;;;;;5078593;28;20835;-86
2021/10/03 07:15:42;;;;;;;11.83;6.43;;;16.00;97.30;;;;;;5095547;28;20401;-84
2021/10/03 07:18:08;;;;;;;15.93;8.17;;;16.00;97.30;;;;;;5093964;28;20429;-85
2021/10/03 07:20:35;;;;;;;13.30;6.90;;;16.10;97.30;;;;;;5076183;28;20440;-81
2021/10/03 07:23:01;;;;;;;14.33;7.00;;;16.20;97.30;;;;;;5079888;28;20795;-80
2021/10/03 07:25:27;;;;;;;13.13;8.07;;;16.30;97.30;;;;;;5082618;28;20496;-82
2021/10/03 07:27:53;;;;;;;13.50;7.70;;;16.30;97.30;;;;;;5091595;28;20453;-80
2021/10/03 07:30:19;;;;;;;12.53;7.40;;;16.40;97.30;;;;;;5088751;28;20209;-80
2021/10/03 07:32:45;;;;;;;12.03;6.97;;;16.50;97.30;;;;;;5081177;28;20961;-80
2021/10/03 07:35:11;;;;;;;13.53;7.43;;;16.50;97.30;;;;;;5084940;28;20239;-81
2021/10/03 07:37:36;;;;;;;15.07;8.00;;;16.60;97.30;;;;;;5078464;28;20417;-81
2021/10/03 07:40:04;;;;;;;17.70;8.60;;;16.60;97.30;;;;;;5077093;28;20413;-82
2021/10/03 07:42:30;;;;;;;12.43;7.57;;;16.70;97.30;;;;;;5081157;28;20694;-80
2021/10/03 07:44:56;;;;;;;12.50;7.97;;;16.70;97.30;;;;;;5097458;28;20444;-80
2021/10/03 07:47:21;;;;;;;14.10;7.43;;;16.80;97.30;;;;;;5098409;28;20428;-81
2021/10/03 07:49:47;;;;;;;17.90;7.53;;;16.80;97.30;;;;;;5097158;28;20717;-82
2021/10/03 07:52:12;;;;;;;18.13;7.87;;;16.80;97.30;;;;;;5085226;28;20175;-80
2021/10/03 07:54:38;;;;;;;17.20;8.07;;;16.80;97.30;;;;;;5079312;28;20195;-83
2021/10/03 07:57:04;;;;;;;15.10;7.90;;;16.90;97.30;;;;;;5077008;28;20172;-81
2021/10/03 07:59:29;;;;;;;13.67;7.40;;;16.90;97.30;;;;;;5076651;28;20175;-81
2021/10/03 08:01:55;;;;;;;13.43;8.17;;;17.00;97.30;;;;;;5077597;28;20168;-82
2021/10/03 08:04:21;;;;;;;13.53;7.80;;;17.00;97.30;;;;;;5076713;28;20683;-81
2021/10/03 08:06:46;;;;;;;14.70;7.70;;;17.10;97.30;;;;;;5077437;28;20175;-81
2021/10/03 08:09:12;;;;;;;11.07;6.70;;;17.10;97.30;;;;;;5076514;28;20223;-81
2021/10/03 08:11:37;;;;;;;16.57;6.60;;;17.10;97.20;;;;;;5084454;28;20205;-81
2021/10/03 08:14:03;;;;;;;14.17;6.90;;;17.20;96.90;;;;;;5096695;28;20194;-80
2021/10/03 08:16:29;;;;;;;11.87;7.00;;;17.30;97.20;;;;;;5096672;28;20175;-81
2021/10/03 08:18:58;;;;;;;13.10;7.47;;;17.30;96.80;;;;;;5096619;28;20248;-81
2021/10/03 08:21:25;;;;;;;14.23;7.50;;;17.40;97.00;;;;;;5093798;28;20198;-81
2021/10/03 08:23:51;;;;;;;10.00;6.00;;;17.50;96.30;;;;;;5093429;28;20444;-81
2021/10/03 08:26:17;;;;;;;12.07;7.17;;;17.50;96.20;;;;;;5095918;28;20421;-81
2021/10/03 08:28:43;;;;;;;9.47;6.90;;;17.60;96.30;;;;;;5096270;28;20178;-81
2021/10/03 08:31:09;;;;;;;15.30;7.17;;;17.70;96.10;;;;;;5098378;28;20478;-81
2021/10/03 08:33:38;;;;;;;11.70;6.93;;;17.70;95.50;;;;;;5084967;28;20199;-80
2021/10/03 08:36:08;;;;;;;11.70;6.50;;;17.80;96.20;;;;;;5093091;28;20416;-80
2021/10/03 08:38:33;;;;;;;10.83;6.00;;;17.90;95.60;;;;;;5082960;28;21221;-81
2021/10/03 08:41:00;;;;;;;10.20;6.10;;;18.00;95.80;;;;;;5089894;28;20566;-82
2021/10/03 08:43:28;;;;;;;11.60;6.90;;;18.00;96.60;;;;;;5100259;28;20202;-81
2021/10/03 08:45:54;;;;;;;8.67;5.80;;;18.10;95.70;;;;;;5098015;28;20453;-85
2021/10/03 08:48:20;;;;;;;10.60;7.10;;;18.10;95.40;;;;;;5099871;28;20934;-82
2021/10/03 08:50:46;;;;;;;46.50;19.80;;;18.20;95.30;;;;;;5095669;28;20454;-82
2021/10/03 08:53:14;;;;;;;9.50;6.13;;;18.30;96.20;;;;;;5094546;28;20660;-81
2021/10/03 08:55:40;;;;;;;40.13;17.87;;;18.40;95.60;;;;;;5102576;28;20794;-82
2021/10/03 08:58:06;;;;;;;26.07;13.50;;;18.40;95.50;;;;;;5099291;28;20480;-82
2021/10/03 09:00:32;;;;;;;14.10;8.23;;;18.50;96.20;;;;;;5096719;28;20174;-83
2021/10/03 09:03:07;;;;;;;10.67;6.60;;;18.60;96.50;;;;;;5096186;28;20762;-81
2021/10/03 09:05:35;;;;;;;11.10;6.23;;;18.60;95.70;;;;;;5099279;28;20174;-82
2021/10/03 09:08:14;;;;;;;10.50;6.20;;;18.70;95.90;;;;;;5087545;28;20433;-82
2021/10/03 09:10:51;;;;;;;11.53;7.00;;;18.80;94.80;;;;;;5089172;28;20468;-82
2021/10/03 09:13:18;;;;;;;10.70;6.40;;;18.80;95.40;;;;;;5089879;28;20425;-82
2021/10/03 09:15:45;;;;;;;13.43;7.53;;;18.90;95.80;;;;;;5085769;28;20788;-82
2021/10/03 09:18:15;;;;;;;9.30;5.90;;;19.00;95.50;;;;;;5096914;28;20412;-82
2021/10/03 09:20:42;;;;;;;9.87;5.80;;;19.10;95.70;;;;;;5119363;28;20399;-81
2021/10/03 09:23:15;;;;;;;13.90;6.37;;;19.10;96.50;;;;;;5103259;28;20440;-80
2021/10/03 09:25:47;;;;;;;10.73;6.20;;;19.20;95.50;;;;;;5111167;28;20432;-84
2021/10/03 09:28:33;;;;;;;10.57;6.17;;;19.30;95.20;;;;;;5111277;28;20699;-83
2021/10/03 09:31:11;;;;;;;9.97;5.97;;;19.40;95.00;;;;;;5093168;28;20977;-81
2021/10/03 09:33:45;;;;;;;9.97;6.07;;;19.60;95.40;;;;;;5075266;28;20471;-82
2021/10/03 09:36:22;;;;;;;10.13;6.53;;;19.70;95.10;;;;;;5083245;28;20416;-82
2021/10/03 09:38:54;;;;;;;9.70;5.77;;;19.90;94.30;;;;;;5091774;28;20507;-83
2021/10/03 09:41:22;;;;;;;11.00;5.90;;;20.00;94.20;;;;;;5094132;28;21050;-83
2021/10/03 09:43:52;;;;;;;8.70;5.87;;;20.20;94.20;;;;;;5093892;28;20480;-83
2021/10/03 09:46:37;;;;;;;10.67;5.80;;;20.30;93.90;;;;;;5093947;28;20416;-82
2021/10/03 09:49:05;;;;;;;14.10;6.73;;;20.50;94.20;;;;;;5084345;28;20468;-83
2021/10/03 09:51:31;;;;;;;9.00;5.40;;;20.60;94.10;;;;;;5101642;28;20463;-82
2021/10/03 09:53:58;;;;;;;7.13;4.93;;;20.80;92.10;;;;;;5114970;28;20432;-81
2021/10/03 09:56:23;;;;;;;7.20;4.97;;;21.00;93.00;;;;;;5114866;28;20419;-81
2021/10/03 09:58:51;;;;;;;8.90;5.60;;;21.20;92.70;;;;;;5114727;28;20781;-81
2021/10/03 10:01:16;;;;;;;11.07;6.03;;;21.20;93.10;;;;;;5113960;28;20594;-81
2021/10/03 10:03:43;;;;;;;9.03;4.97;;;21.30;92.40;;;;;;5076408;28;20440;-81
2021/10/03 10:06:08;;;;;;;9.13;5.60;;;21.40;91.80;;;;;;5074230;28;20274;-81
2021/10/03 10:08:38;;;;;;;11.20;5.80;;;21.50;92.60;;;;;;5073758;28;21149;-81
2021/10/03 10:11:18;;;;;;;10.40;6.03;;;21.60;92.00;;;;;;5074109;28;20196;-81
2021/10/03 10:13:54;;;;;;;8.37;4.93;;;21.80;92.90;;;;;;5093885;28;20472;-83
2021/10/03 10:16:30;;;;;;;10.30;6.20;;;22.00;92.60;;;;;;5079889;28;20434;-80
2021/10/03 10:19:33;;;;;;;8.97;5.70;;;22.20;92.30;;;;;;5078710;28;20436;-80
2021/10/03 10:22:11;;;;;;;8.57;5.30;;;22.30;91.70;;;;;;5055192;28;20524;-80
2021/10/03 10:24:43;;;;;;;9.07;5.33;;;22.40;92.30;;;;;;5092671;28;20939;-81
2021/10/03 10:27:29;;;;;;;8.53;4.80;;;22.60;90.00;;;;;;5075152;28;20429;-84
2021/10/03 10:30:02;;;;;;;7.37;4.50;;;22.80;90.80;;;;;;5070377;28;20457;-82
2021/10/03 10:32:58;;;;;;;7.03;4.77;;;22.90;88.20;;;;;;5085499;28;20439;-81
2021/10/03 10:35:29;;;;;;;6.00;4.03;;;23.00;85.00;;;;;;5081266;28;20482;-81
2021/10/03 10:38:01;;;;;;;9.23;4.33;;;23.10;85.50;;;;;;5077418;28;20417;-82
2021/10/03 10:40:33;;;;;;;5.00;3.60;;;23.20;86.40;;;;;;5087982;28;20432;-83
2021/10/03 10:43:03;;;;;;;6.57;4.63;;;23.20;85.40;;;;;;5085625;28;20421;-82
2021/10/03 10:45:29;;;;;;;8.90;3.97;;;23.30;85.40;;;;;;5082501;28;20479;-82
2021/10/03 10:48:10;;;;;;;5.80;3.90;;;23.40;84.60;;;;;;5087323;28;20418;-83
2021/10/03 10:50:49;;;;;;;7.27;4.10;;;23.50;83.70;;;;;;5077828;28;20487;-83
2021/10/03 10:53:20;;;;;;;4.10;3.87;;;23.60;82.70;;;;;;5081484;28;20451;-82
2021/10/03 10:56:17;;;;;;;6.97;4.83;;;23.70;81.50;;;;;;5089218;28;20418;-83
2021/10/03 10:58:52;;;;;;;12.33;3.90;;;23.80;81.50;;;;;;5088581;28;20397;-83
2021/10/03 11:01:30;;;;;;;5.50;3.33;;;23.80;81.70;;;;;;5081106;28;20447;-84
2021/10/03 11:04:01;;;;;;;9.20;3.60;;;23.90;80.60;;;;;;5084063;28;20431;-84
2021/10/03 11:06:27;;;;;;;5.07;3.70;;;23.90;80.50;;;;;;5076476;28;20417;-83
2021/10/03 11:09:02;;;;;;;6.13;4.10;;;23.90;80.00;;;;;;5090227;28;20449;-84
2021/10/03 11:11:29;;;;;;;4.90;3.57;;;23.90;80.30;;;;;;5096089;28;20206;-82
2021/10/03 11:13:58;;;;;;;5.30;4.10;;;23.90;80.40;;;;;;5079646;28;20510;-84
2021/10/03 11:16:31;;;;;;;6.60;3.40;;;24.00;79.10;;;;;;5098903;28;20455;-85
2021/10/03 11:19:21;;;;;;;6.67;4.00;;;24.00;78.60;;;;;;5097091;28;20404;-86
2021/10/03 11:21:48;;;;;;;6.37;3.90;;;23.90;77.90;;;;;;5097318;28;20534;-83
2021/10/03 11:24:26;;;;;;;5.47;3.50;;;23.90;78.30;;;;;;5080592;28;20480;-85
2021/10/03 11:26:57;;;;;;;5.63;3.83;;;23.90;78.40;;;;;;5076022;28;20462;-84
2021/10/03 11:29:27;;;;;;;8.53;4.07;;;23.90;76.90;;;;;;5076161;28;20409;-84
2021/10/03 11:31:54;;;;;;;6.33;4.03;;;23.90;77.50;;;;;;5075691;28;20489;-84
2021/10/03 11:34:32;;;;;;;5.37;3.57;;;24.00;78.40;;;;;;5075589;28;21029;-84
2021/10/03 11:36:59;;;;;;;5.77;3.87;;;24.20;76.90;;;;;;5075957;28;20420;-85
2021/10/03 11:39:36;;;;;;;5.60;3.60;;;24.30;76.40;;;;;;5075164;28;20416;-84
2021/10/03 11:42:02;;;;;;;4.53;3.20;;;24.40;76.50;;;;;;5075863;28;20432;-84
2021/10/03 11:44:28;;;;;;;4.70;3.60;;;24.50;77.30;;;;;;5076726;28;20471;-84
2021/10/03 11:47:05;;;;;;;5.63;3.90;;;24.60;77.20;;;;;;5075955;28;20418;-84
2021/10/03 11:49:34;;;;;;;8.07;3.83;;;24.60;76.50;;;;;;5076619;28;20200;-83
2021/10/03 11:52:00;;;;;;;5.00;3.90;;;24.60;75.70;;;;;;5075682;28;20431;-84
2021/10/03 11:54:41;;;;;;;9.83;4.17;;;24.70;76.50;;;;;;5075678;28;20536;-85
2021/10/03 11:57:29;;;;;;;6.70;3.80;;;24.70;75.20;;;;;;5076094;28;20511;-84
2021/10/03 12:00:11;;;;;;;6.80;4.13;;;24.60;75.20;;;;;;5076796;28;20504;-82
2021/10/03 12:03:03;;;;;;;7.30;4.30;;;24.50;75.40;;;;;;5076967;28;20421;-83
2021/10/03 12:05:31;;;;;;;5.73;4.07;;;24.40;76.30;;;;;;5075659;28;20923;-83
2021/10/03 12:08:10;;;;;;;8.47;3.97;;;24.40;77.90;;;;;;5078532;28;20934;-81
2021/10/03 12:11:00;;;;;;;6.27;4.30;;;24.30;76.80;;;;;;5075929;28;20533;-83
2021/10/03 12:13:36;;;;;;;5.50;4.17;;;24.30;77.10;;;;;;5090890;28;20531;-82
2021/10/03 12:16:02;;;;;;;4.93;3.80;;;24.40;77.00;;;;;;5097452;28;20423;-83
2021/10/03 12:18:28;;;;;;;6.10;4.20;;;24.40;76.30;;;;;;5095806;28;20404;-84
2021/10/03 12:20:59;;;;;;;6.60;4.23;;;24.40;76.70;;;;;;5095533;28;20202;-84
2021/10/03 12:23:59;;;;;;;7.60;4.10;;;24.30;76.40;;;;;;5095013;28;20687;-84
2021/10/03 12:26:48;;;;;;;10.97;4.60;;;24.20;76.70;;;;;;5098450;28;21036;-82
2021/10/03 12:29:27;;;;;;;4.97;3.67;;;24.10;77.30;;;;;;5095860;28;20412;-82
2021/10/03 12:32:03;;;;;;;4.90;3.77;;;24.00;77.70;;;;;;5097650;28;20979;-82
2021/10/03 12:34:51;;;;;;;7.33;4.10;;;23.90;78.30;;;;;;5078023;28;20483;-85
2021/10/03 12:37:20;;;;;;;4.53;3.60;;;23.90;77.30;;;;;;5076307;28;20501;-86
2021/10/03 12:39:56;;;;;;;5.00;4.07;;;23.90;77.90;;;;;;5077667;28;20772;-84
2021/10/03 12:42:28;;;;;;;6.17;3.80;;;23.90;78.70;;;;;;5076063;28;20405;-83
2021/10/03 12:44:57;;;;;;;7.17;3.90;;;24.00;78.00;;;;;;5076949;28;20432;-83
2021/10/03 12:47:24;;;;;;;4.77;4.03;;;24.00;78.10;;;;;;5076346;28;20475;-83
2021/10/03 12:49:50;;;;;;;6.77;4.30;;;23.90;77.90;;;;;;5076907;28;21369;-82